Time;durP1;ratioP1;P1;durP2;ratioP2;P2;SDS_P1;SDS_P2;PMS_P1;PMS_P2;Temp;Humidity;BMP_temperature;BMP_pressure;BME280_temperature;BME280_humidity;BME280_pressure;Samples;Min_cycle;Max_cycle;Signal;HPM_P1;HPM_P2
2022/01/09 00:04:33;;;;;;;39.42;17.75;;;4.10;99.90;;;;;;5990266;23;20027;-90
2022/01/09 00:07:44;;;;;;;24.70;14.55;;;4.10;99.90;;;;;;5893908;24;20545;-89
2022/01/09 00:11:01;;;;;;;28.65;16.85;;;4.10;99.90;;;;;;5911591;24;20016;-87
2022/01/09 00:16:34;;;;;;;27.67;15.65;;;4.10;99.90;;;;;;5827371;24;20086;-87
2022/01/09 00:19:13;;;;;;;24.95;16.23;;;4.10;99.90;;;;;;5889310;24;20021;-88
2022/01/09 00:21:45;;;;;;;29.10;16.55;;;4.10;99.90;;;;;;5866935;24;20343;-90
2022/01/09 00:24:51;;;;;;;39.30;18.35;;;4.10;99.90;;;;;;6077533;23;20020;-89
2022/01/09 00:31:09;;;;;;;;;;;;;;;;;;;;;
2022/01/09 00:34:23;;;;;;;35.00;17.10;;;4.10;99.90;;;;;;6112616;23;20040;-91
2022/01/09 00:36:58;;;;;;;30.73;16.55;;;4.10;99.90;;;;;;6135799;23;20142;-90
2022/01/09 00:40:25;;;;;;;;;;;;;;;;;;;;;
2022/01/09 00:51:36;;;;;;;29.85;17.13;;;4.10;99.90;;;;;;6191787;23;20363;-90
2022/01/09 00:54:31;;;;;;;33.53;17.60;;;4.10;99.90;;;;;;6120607;23;20016;-88
2022/01/09 00:57:00;;;;;;;31.67;17.15;;;4.20;99.90;;;;;;6122464;23;20282;-89
2022/01/09 00:59:38;;;;;;;35.95;17.65;;;4.10;99.90;;;;;;6098570;23;20016;-90
2022/01/09 01:02:07;;;;;;;32.70;16.95;;;4.10;99.90;;;;;;6116810;23;20087;-89
2022/01/09 01:04:59;;;;;;;27.75;16.08;;;4.10;99.90;;;;;;6143135;23;20361;-88
2022/01/09 01:07:27;;;;;;;33.90;17.20;;;4.10;99.90;;;;;;6160903;23;20063;-87
2022/01/09 01:09:54;;;;;;;29.08;16.90;;;4.10;99.90;;;;;;6143684;23;20038;-87
2022/01/09 01:12:48;;;;;;;27.58;16.48;;;4.10;99.90;;;;;;6141399;23;20013;-89
2022/01/09 01:15:31;;;;;;;28.90;15.80;;;4.10;99.90;;;;;;6132958;23;20047;-89
2022/01/09 01:18:13;;;;;;;33.65;17.70;;;4.20;99.90;;;;;;6164473;23;20013;-89
2022/01/09 01:20:51;;;;;;;37.88;17.50;;;4.10;99.90;;;;;;6169256;23;20300;-89
2022/01/09 01:23:20;;;;;;;26.85;15.50;;;4.10;99.90;;;;;;6163124;23;20305;-89
2022/01/09 01:26:02;;;;;;;29.50;17.02;;;4.20;99.90;;;;;;6118099;23;20627;-89
2022/01/09 01:28:46;;;;;;;30.95;17.90;;;4.10;99.90;;;;;;6145088;23;20038;-89
2022/01/09 01:31:29;;;;;;;20.73;14.27;;;4.10;99.90;;;;;;6118541;23;20524;-90
2022/01/09 01:33:58;;;;;;;24.98;16.70;;;4.10;99.90;;;;;;6123769;23;20103;-89
2022/01/09 01:36:24;;;;;;;25.67;16.90;;;4.10;99.90;;;;;;6096617;23;20023;-89
2022/01/09 01:39:07;;;;;;;27.45;17.52;;;4.10;99.90;;;;;;6127879;23;20012;-89
2022/01/09 01:41:54;;;;;;;31.08;18.77;;;4.10;99.90;;;;;;6177958;23;20095;-88
2022/01/09 01:44:24;;;;;;;29.17;18.23;;;4.10;99.90;;;;;;6177103;23;20019;-90
2022/01/09 01:47:09;;;;;;;32.67;18.33;;;4.10;99.90;;;;;;6175417;23;20108;-90
2022/01/09 01:49:56;;;;;;;42.20;20.77;;;4.10;99.90;;;;;;6115421;23;20088;-90
2022/01/09 01:52:35;;;;;;;39.70;20.80;;;4.10;99.90;;;;;;6117241;23;20599;-90
2022/01/09 01:55:01;;;;;;;31.13;18.70;;;4.10;99.90;;;;;;6127287;23;20021;-91
2022/01/09 02:01:05;;;;;;;39.70;21.65;;;4.10;99.90;;;;;;6026059;23;20548;-90
2022/01/09 02:03:51;;;;;;;47.25;22.48;;;4.20;99.90;;;;;;6019397;23;20033;-89
2022/01/09 02:06:40;;;;;;;40.10;21.83;;;4.20;99.90;;;;;;6112649;23;20329;-93
2022/01/09 02:09:08;;;;;;;43.20;21.90;;;4.20;99.90;;;;;;6174761;23;20016;-90
2022/01/09 02:12:17;;;;;;;45.38;23.05;;;4.10;99.90;;;;;;6145152;23;20032;-89
2022/01/09 02:17:52;;;;;;;65.93;27.85;;;4.10;99.90;;;;;;6150373;23;20021;-90
2022/01/09 02:20:18;;;;;;;58.50;28.23;;;4.10;99.90;;;;;;6127087;23;20016;-90
2022/01/09 02:22:44;;;;;;;69.75;30.13;;;4.10;99.90;;;;;;6171163;23;20226;-89
2022/01/09 02:25:11;;;;;;;76.65;30.92;;;4.10;99.90;;;;;;6145915;23;20025;-90
2022/01/09 02:27:37;;;;;;;85.43;33.40;;;4.10;99.90;;;;;;6145058;23;20545;-90
2022/01/09 02:30:34;;;;;;;;;;;;;;;;;;;;;
2022/01/09 02:33:51;;;;;;;96.53;34.80;;;4.10;99.90;;;;;;6161028;23;20480;-89
2022/01/09 02:40:05;;;;;;;115.97;35.15;;;4.20;99.90;;;;;;6134769;23;20025;-89
2022/01/09 02:49:16;;;;;;;97.25;35.95;;;4.20;99.90;;;;;;6164120;23;20058;-89
2022/01/09 02:55:15;;;;;;;98.97;34.92;;;4.20;99.90;;;;;;6174595;23;20055;-89
2022/01/09 03:04:35;;;;;;;109.75;34.38;;;4.30;99.90;;;;;;6141671;23;20017;-88
2022/01/09 03:07:01;;;;;;;168.88;36.53;;;4.30;99.90;;;;;;6111178;23;20136;-89
2022/01/09 03:09:29;;;;;;;137.07;35.63;;;4.30;99.90;;;;;;6084089;23;20017;-89
2022/01/09 03:12:26;;;;;;;171.13;36.33;;;4.30;99.90;;;;;;6085459;23;20019;-88
2022/01/09 03:16:32;;;;;;;145.45;31.63;;;4.30;99.90;;;;;;6134556;23;20021;-89
2022/01/09 03:18:49;;;;;;;96.40;27.95;;;4.30;99.90;;;;;;6116381;23;20028;-89
2022/01/09 03:21:26;;;;;;;110.85;28.75;;;4.40;99.90;;;;;;6085944;23;20013;-89
2022/01/09 03:23:52;;;;;;;137.05;28.33;;;4.40;99.90;;;;;;6104683;23;20018;-88
2022/01/09 03:26:18;;;;;;;128.38;27.58;;;4.40;99.90;;;;;;6106726;23;20013;-90
2022/01/09 03:28:46;;;;;;;144.38;28.17;;;4.50;99.90;;;;;;6106580;23;20021;-88
2022/01/09 03:31:14;;;;;;;142.25;27.55;;;4.50;99.90;;;;;;6104790;23;20118;-88
2022/01/09 03:33:43;;;;;;;87.97;21.85;;;4.50;99.90;;;;;;6082942;23;20075;-90
2022/01/09 03:36:12;;;;;;;63.00;18.92;;;4.50;99.90;;;;;;6110613;23;20028;-87
2022/01/09 03:38:41;;;;;;;74.03;16.27;;;4.60;99.90;;;;;;6106552;23;20017;-89
2022/01/09 03:41:07;;;;;;;44.90;11.65;;;4.60;99.90;;;;;;6083030;23;20390;-85
2022/01/09 03:43:35;;;;;;;45.17;10.65;;;4.70;99.90;;;;;;6080720;23;20373;-87
2022/01/09 03:46:04;;;;;;;35.17;9.52;;;4.80;99.90;;;;;;6081757;23;20351;-86
2022/01/09 03:48:31;;;;;;;39.70;8.95;;;4.80;99.90;;;;;;6104296;23;20195;-88
2022/01/09 03:50:57;;;;;;;50.50;11.02;;;4.90;99.90;;;;;;6060003;23;20454;-88
2022/01/09 03:53:23;;;;;;;54.17;9.50;;;4.90;99.90;;;;;;6104407;23;20232;-87
2022/01/09 03:55:49;;;;;;;55.28;10.32;;;4.90;99.90;;;;;;6057958;23;20044;-86
2022/01/09 03:58:15;;;;;;;59.17;9.02;;;4.90;99.90;;;;;;6056953;23;20077;-87
2022/01/09 04:00:41;;;;;;;47.17;7.32;;;5.00;99.90;;;;;;6085614;23;20229;-86
2022/01/09 04:03:06;;;;;;;44.30;7.53;;;5.00;99.90;;;;;;6077170;23;20020;-87
2022/01/09 04:05:32;;;;;;;53.55;7.47;;;5.10;99.90;;;;;;6056602;23;20402;-88
2022/01/09 04:07:58;;;;;;;52.40;7.82;;;5.10;99.90;;;;;;6057413;23;20017;-86
2022/01/09 04:10:28;;;;;;;59.63;8.95;;;5.20;99.90;;;;;;6058375;23;20433;-87
2022/01/09 04:12:59;;;;;;;73.90;9.75;;;5.20;99.90;;;;;;6107331;23;20020;-87
2022/01/09 04:15:28;;;;;;;103.95;10.88;;;5.20;99.90;;;;;;6093742;23;20017;-86
2022/01/09 04:17:55;;;;;;;104.57;11.52;;;5.30;99.90;;;;;;6117244;23;20052;-86
2022/01/09 04:20:22;;;;;;;102.60;11.30;;;5.30;99.90;;;;;;6117221;23;20071;-85
2022/01/09 04:22:49;;;;;;;74.07;9.07;;;5.40;99.90;;;;;;6117294;23;20083;-87
2022/01/09 04:25:15;;;;;;;84.88;8.90;;;5.40;99.90;;;;;;6138376;23;20103;-85
2022/01/09 04:27:42;;;;;;;117.68;10.85;;;5.40;99.90;;;;;;6138720;23;20369;-85
2022/01/09 04:30:09;;;;;;;98.75;8.93;;;5.50;99.90;;;;;;6119956;23;20021;-86
2022/01/09 04:32:35;;;;;;;88.05;9.65;;;5.50;99.90;;;;;;6112707;23;20020;-87
2022/01/09 04:35:01;;;;;;;86.40;7.63;;;5.60;99.90;;;;;;6138402;23;20024;-84
2022/01/09 04:37:28;;;;;;;78.63;8.68;;;5.60;99.90;;;;;;6117663;23;20086;-85
2022/01/09 04:39:55;;;;;;;76.70;7.50;;;5.60;99.90;;;;;;6148027;23;20012;-88
2022/01/09 04:42:26;;;;;;;82.57;6.88;;;5.60;99.90;;;;;;6117931;23;20466;-86
2022/01/09 04:44:52;;;;;;;91.03;8.67;;;5.70;99.90;;;;;;6113149;23;20029;-85
2022/01/09 04:47:18;;;;;;;95.32;8.35;;;5.60;99.90;;;;;;6090837;23;20024;-84
2022/01/09 04:49:46;;;;;;;97.70;8.02;;;5.60;99.90;;;;;;6090065;23;20017;-84
2022/01/09 04:52:17;;;;;;;72.95;6.53;;;5.70;99.90;;;;;;6113960;23;20361;-85
2022/01/09 04:54:43;;;;;;;83.65;6.88;;;5.70;99.90;;;;;;6117294;23;20345;-87
2022/01/09 04:57:09;;;;;;;94.15;7.57;;;5.70;99.90;;;;;;6164527;23;20016;-84
2022/01/09 04:59:38;;;;;;;81.55;7.95;;;5.70;99.90;;;;;;6140320;23;20038;-87
2022/01/09 05:02:04;;;;;;;54.80;6.07;;;5.70;99.90;;;;;;6117823;23;20015;-90
2022/01/09 05:04:30;;;;;;;77.10;6.03;;;5.70;99.90;;;;;;6116163;23;20126;-87
2022/01/09 05:06:55;;;;;;;74.72;6.53;;;5.70;99.90;;;;;;6140975;23;20040;-87
2022/01/09 05:09:21;;;;;;;70.53;6.28;;;5.70;99.90;;;;;;6114357;23;20017;-86
2022/01/09 05:11:49;;;;;;;61.38;6.55;;;5.70;99.90;;;;;;6091738;23;20020;-87
2022/01/09 05:14:15;;;;;;;65.05;5.47;;;5.60;99.90;;;;;;6095519;23;20115;-85
2022/01/09 05:16:45;;;;;;;64.03;5.75;;;5.60;99.90;;;;;;6115362;23;20097;-85
2022/01/09 05:19:22;;;;;;;63.50;7.25;;;5.70;99.90;;;;;;6142683;23;20469;-87
2022/01/09 05:21:49;;;;;;;78.25;5.35;;;5.70;99.90;;;;;;6093309;23;20039;-85
2022/01/09 05:24:16;;;;;;;69.30;6.25;;;5.60;99.90;;;;;;6116161;23;20071;-87
2022/01/09 05:26:42;;;;;;;50.85;5.07;;;5.60;99.90;;;;;;6168483;23;20420;-88
2022/01/09 05:29:15;;;;;;;66.72;6.10;;;5.60;99.90;;;;;;6142555;23;20086;-85
2022/01/09 05:31:43;;;;;;;52.08;5.85;;;5.60;99.90;;;;;;6113623;23;20264;-86
2022/01/09 05:34:15;;;;;;;67.35;5.65;;;5.60;99.90;;;;;;6138469;23;20123;-83
2022/01/09 05:36:44;;;;;;;56.42;5.18;;;5.60;99.90;;;;;;6118873;23;20077;-89
2022/01/09 05:39:13;;;;;;;69.05;6.78;;;5.60;99.90;;;;;;6117793;23;20048;-85
2022/01/09 05:41:41;;;;;;;47.40;4.72;;;5.50;99.90;;;;;;6138953;23;20009;-85
2022/01/09 05:44:13;;;;;;;41.15;4.13;;;5.50;99.90;;;;;;6116167;23;20071;-88
2022/01/09 05:46:39;;;;;;;71.47;5.20;;;5.50;99.90;;;;;;6093050;23;20017;-87
2022/01/09 05:49:08;;;;;;;64.72;5.15;;;5.50;99.90;;;;;;6134079;23;20644;-86
2022/01/09 05:51:39;;;;;;;44.97;3.78;;;5.40;99.90;;;;;;6142191;23;20501;-86
2022/01/09 05:54:05;;;;;;;40.72;3.97;;;5.40;99.90;;;;;;6118421;23;20048;-88
2022/01/09 05:56:31;;;;;;;48.00;4.28;;;5.40;99.90;;;;;;6113444;23;20497;-86
2022/01/09 05:58:57;;;;;;;55.70;4.88;;;5.30;99.90;;;;;;6116016;23;20008;-85
2022/01/09 06:01:22;;;;;;;41.88;4.40;;;5.30;99.90;;;;;;6095372;23;20268;-87
2022/01/09 06:03:48;;;;;;;47.67;4.45;;;5.30;99.90;;;;;;6115866;23;20020;-87
2022/01/09 06:06:14;;;;;;;39.05;4.15;;;5.30;99.90;;;;;;6119447;23;20016;-86
2022/01/09 06:08:40;;;;;;;40.65;4.00;;;5.30;99.90;;;;;;6090896;23;20449;-87
2022/01/09 06:11:06;;;;;;;40.45;3.65;;;5.30;99.90;;;;;;6098412;23;20020;-87
2022/01/09 06:13:58;;;;;;;46.60;4.38;;;5.20;99.90;;;;;;6100378;23;20059;-87
2022/01/09 06:16:24;;;;;;;48.25;4.20;;;5.20;99.90;;;;;;6122787;23;20078;-85
2022/01/09 06:18:50;;;;;;;36.45;3.33;;;5.10;99.90;;;;;;6126649;23;20350;-87
2022/01/09 06:21:26;;;;;;;52.38;4.15;;;5.10;99.90;;;;;;6124248;23;20017;-87
2022/01/09 06:23:52;;;;;;;45.78;3.55;;;5.10;99.90;;;;;;6150255;23;20021;-87
2022/01/09 06:26:18;;;;;;;47.50;3.50;;;5.00;99.90;;;;;;6125164;23;20017;-86
2022/01/09 06:28:44;;;;;;;34.97;3.80;;;5.00;99.90;;;;;;6148930;23;20017;-84
2022/01/09 06:31:10;;;;;;;37.95;3.55;;;5.00;99.90;;;;;;6126807;23;20012;-85
2022/01/09 06:33:36;;;;;;;31.95;3.58;;;5.00;99.90;;;;;;6151645;23;20472;-86
2022/01/09 06:36:02;;;;;;;48.58;3.60;;;5.00;99.90;;;;;;6149652;23;20032;-85
2022/01/09 06:38:27;;;;;;;49.92;4.28;;;5.00;99.90;;;;;;6123701;23;20070;-84
2022/01/09 06:40:53;;;;;;;38.00;3.75;;;5.00;99.90;;;;;;6151731;23;20012;-84
2022/01/09 06:43:21;;;;;;;40.30;4.18;;;5.00;99.90;;;;;;6126951;23;20012;-85
2022/01/09 06:45:47;;;;;;;34.45;3.80;;;5.00;99.90;;;;;;6168936;23;20029;-86
2022/01/09 06:48:25;;;;;;;39.90;5.15;;;4.90;99.90;;;;;;6124659;23;20330;-86
2022/01/09 06:50:53;;;;;;;40.67;5.18;;;5.00;99.90;;;;;;6151380;23;20048;-88
2022/01/09 06:53:18;;;;;;;40.28;4.25;;;5.00;99.90;;;;;;6151274;23;20019;-85
2022/01/09 06:55:52;;;;;;;37.67;4.15;;;5.00;99.90;;;;;;6153075;23;20099;-86
2022/01/09 06:58:24;;;;;;;47.40;4.05;;;5.00;99.90;;;;;;6125435;23;20312;-85
2022/01/09 07:00:51;;;;;;;27.63;3.58;;;5.00;99.90;;;;;;6126786;23;20115;-84
2022/01/09 07:03:22;;;;;;;40.47;4.07;;;5.00;99.90;;;;;;6128390;23;20390;-85
2022/01/09 07:05:51;;;;;;;40.80;3.67;;;5.00;99.90;;;;;;6126587;23;20024;-86
2022/01/09 07:08:17;;;;;;;36.45;3.70;;;5.00;99.90;;;;;;6123206;23;20047;-88
2022/01/09 07:10:48;;;;;;;42.72;4.13;;;5.00;99.90;;;;;;6150373;23;20013;-84
2022/01/09 07:13:17;;;;;;;41.13;3.83;;;5.00;99.90;;;;;;6126902;23;20078;-85
2022/01/09 07:15:44;;;;;;;30.17;3.58;;;5.00;99.90;;;;;;6126824;23;20112;-85
2022/01/09 07:18:13;;;;;;;29.88;2.97;;;4.90;99.90;;;;;;6148827;23;20087;-86
2022/01/09 07:20:52;;;;;;;35.47;3.92;;;5.00;99.90;;;;;;6149578;23;20016;-85
2022/01/09 07:23:21;;;;;;;26.98;4.43;;;4.90;99.90;;;;;;6148254;23;20017;-86
2022/01/09 07:25:48;;;;;;;35.78;4.38;;;4.90;99.90;;;;;;6150729;23;20102;-86
2022/01/09 07:28:20;;;;;;;42.85;4.35;;;4.90;99.90;;;;;;6151365;23;20012;-86
2022/01/09 07:30:46;;;;;;;42.70;3.42;;;4.90;99.90;;;;;;6147709;23;20063;-86
2022/01/09 07:33:15;;;;;;;36.42;3.65;;;4.90;99.90;;;;;;6124571;23;20073;-86
2022/01/09 07:35:41;;;;;;;37.00;4.40;;;4.90;99.90;;;;;;6098096;23;20017;-85
2022/01/09 07:38:07;;;;;;;37.47;2.92;;;4.90;99.90;;;;;;6147040;23;20389;-85
2022/01/09 07:40:57;;;;;;;27.00;3.70;;;4.80;99.90;;;;;;6124232;23;20012;-85
2022/01/09 07:43:53;;;;;;;23.85;3.70;;;4.80;99.90;;;;;;6124051;23;20013;-85
2022/01/09 07:46:19;;;;;;;23.80;3.30;;;4.80;99.90;;;;;;6118192;23;20450;-86
2022/01/09 07:48:57;;;;;;;31.75;3.45;;;4.80;99.90;;;;;;6125657;23;20012;-85
2022/01/09 07:51:25;;;;;;;26.55;3.05;;;4.80;99.90;;;;;;6126008;23;20017;-86
2022/01/09 07:53:51;;;;;;;28.60;3.50;;;4.80;99.90;;;;;;6145532;23;20429;-85
2022/01/09 07:56:17;;;;;;;29.13;3.60;;;4.80;99.90;;;;;;6125733;23;20056;-86
2022/01/09 07:58:52;;;;;;;26.52;2.95;;;4.80;99.90;;;;;;6098280;23;20016;-87
2022/01/09 08:02:02;;;;;;;25.08;3.60;;;4.80;99.90;;;;;;6150668;23;20013;-85
2022/01/09 08:04:28;;;;;;;26.20;3.15;;;4.70;99.90;;;;;;6151031;23;20094;-84
2022/01/09 08:07:29;;;;;;;21.80;2.55;;;4.80;99.90;;;;;;6128585;23;20327;-85
2022/01/09 08:09:57;;;;;;;18.70;2.45;;;4.70;99.90;;;;;;6147008;23;20028;-85
2022/01/09 08:12:33;;;;;;;26.30;3.10;;;4.70;99.90;;;;;;6124626;23;20023;-85
2022/01/09 08:15:03;;;;;;;16.85;2.13;;;4.70;99.90;;;;;;6126945;23;20017;-86
2022/01/09 08:18:00;;;;;;;19.77;2.90;;;4.70;99.90;;;;;;6149662;23;20099;-85
2022/01/09 08:20:35;;;;;;;25.92;2.63;;;4.70;99.90;;;;;;6117096;23;20078;-86
2022/01/09 08:23:07;;;;;;;25.33;2.42;;;4.70;99.90;;;;;;6152418;23;20406;-85
2022/01/09 08:25:35;;;;;;;24.45;2.53;;;4.60;99.90;;;;;;6104060;23;20389;-85
2022/01/09 08:28:08;;;;;;;24.42;2.70;;;4.60;99.90;;;;;;6127921;23;20020;-85
2022/01/09 08:30:39;;;;;;;22.73;2.30;;;4.60;99.90;;;;;;6148690;23;20012;-85
2022/01/09 08:33:14;;;;;;;16.97;1.73;;;4.60;99.90;;;;;;6126336;23;20322;-85
2022/01/09 08:35:49;;;;;;;20.02;2.17;;;4.60;99.90;;;;;;6151130;23;20485;-85
2022/01/09 08:38:15;;;;;;;30.75;3.05;;;4.60;99.90;;;;;;6153013;23;20386;-85
2022/01/09 08:40:43;;;;;;;14.93;2.50;;;4.60;99.90;;;;;;6150150;23;20335;-86
2022/01/09 08:43:31;;;;;;;19.67;2.25;;;4.60;99.90;;;;;;6124805;23;20009;-85
2022/01/09 08:45:59;;;;;;;14.50;2.35;;;4.50;99.90;;;;;;6178083;23;20297;-84
2022/01/09 08:48:25;;;;;;;16.20;2.38;;;4.50;99.90;;;;;;6125889;23;20066;-85
2022/01/09 08:50:51;;;;;;;14.77;2.22;;;4.60;99.90;;;;;;6151263;23;20032;-85
2022/01/09 08:53:20;;;;;;;22.15;2.60;;;4.60;99.90;;;;;;6129833;23;20377;-85
2022/01/09 08:55:53;;;;;;;23.67;2.20;;;4.60;99.90;;;;;;6150786;23;20021;-85
2022/01/09 08:58:24;;;;;;;25.98;3.25;;;4.60;99.90;;;;;;6145797;23;20023;-85
2022/01/09 09:00:50;;;;;;;11.57;1.90;;;4.60;99.90;;;;;;6153248;23;20099;-84
2022/01/09 09:03:16;;;;;;;28.23;2.35;;;4.60;99.90;;;;;;6198041;23;20412;-85
2022/01/09 09:05:45;;;;;;;20.55;2.90;;;4.60;99.90;;;;;;6145734;23;20060;-83
2022/01/09 09:08:11;;;;;;;25.13;2.60;;;4.70;99.90;;;;;;6124890;23;20017;-84
2022/01/09 09:10:43;;;;;;;34.97;3.25;;;4.70;99.90;;;;;;6146901;23;20043;-84
2022/01/09 09:13:09;;;;;;;22.08;3.30;;;4.70;99.90;;;;;;6174323;23;20262;-84
2022/01/09 09:15:49;;;;;;;24.23;2.75;;;4.70;99.90;;;;;;6118771;23;20009;-85
2022/01/09 09:18:18;;;;;;;29.73;2.88;;;4.70;99.90;;;;;;6097148;23;20032;-84
2022/01/09 09:20:44;;;;;;;26.52;2.83;;;4.70;99.90;;;;;;6119696;23;20091;-85
2022/01/09 09:23:16;;;;;;;21.60;2.53;;;4.80;99.90;;;;;;6099712;23;20048;-85
2022/01/09 09:30:36;;;;;;;24.25;2.80;;;4.80;99.90;;;;;;6025053;23;20015;-84
2022/01/09 09:34:26;;;;;;;17.10;2.15;;;4.80;99.90;;;;;;5975067;23;20020;-85
2022/01/09 09:41:26;;;;;;;15.05;2.58;;;4.90;99.90;;;;;;5910689;24;20414;-85
2022/01/09 09:43:56;;;;;;;15.80;2.42;;;4.90;99.90;;;;;;5943396;23;20110;-85
2022/01/09 09:46:32;;;;;;;28.05;2.90;;;4.90;99.90;;;;;;6018837;23;20056;-85
2022/01/09 09:48:58;;;;;;;22.52;3.03;;;4.90;99.90;;;;;;6087710;23;20017;-85
2022/01/09 09:52:08;;;;;;;16.80;2.65;;;4.90;99.90;;;;;;6064296;23;20013;-86
2022/01/09 09:55:53;;;;;;;20.10;2.85;;;4.90;99.90;;;;;;6098826;23;20013;-86
2022/01/09 09:58:40;;;;;;;14.52;2.28;;;5.00;99.90;;;;;;6033341;23;20040;-84
2022/01/09 10:01:30;;;;;;;24.08;2.60;;;5.00;99.90;;;;;;6013780;23;20056;-84
2022/01/09 10:04:02;;;;;;;21.95;2.33;;;5.00;99.90;;;;;;6035016;23;20023;-84
2022/01/09 10:07:11;;;;;;;19.92;2.20;;;5.00;99.90;;;;;;6090369;23;20044;-85
2022/01/09 10:11:03;;;;;;;18.05;2.67;;;5.00;99.90;;;;;;6176302;23;20074;-86
2022/01/09 10:13:32;;;;;;;16.83;2.10;;;5.00;99.90;;;;;;6059460;23;20107;-84
2022/01/09 10:16:02;;;;;;;12.55;1.55;;;5.00;99.90;;;;;;6011726;23;20022;-85
2022/01/09 10:19:25;;;;;;;20.40;2.60;;;5.00;99.90;;;;;;6150315;23;20017;-84
2022/01/09 10:22:04;;;;;;;17.13;2.60;;;5.00;99.90;;;;;;6037043;23;20409;-86
2022/01/09 10:29:54;;;;;;;18.27;2.08;;;5.10;99.90;;;;;;6205717;23;20025;-87
2022/01/09 10:33:13;;;;;;;12.77;1.92;;;5.10;99.90;;;;;;6199709;23;20025;-84
2022/01/09 10:36:43;;;;;;;16.25;2.00;;;5.20;99.90;;;;;;6169177;23;20079;-85
2022/01/09 10:39:16;;;;;;;10.48;1.58;;;5.10;99.90;;;;;;6150039;23;20019;-86
2022/01/09 10:41:51;;;;;;;14.27;1.92;;;5.10;99.90;;;;;;6149371;23;20009;-85
2022/01/09 10:44:38;;;;;;;9.35;1.73;;;5.20;99.90;;;;;;6128542;23;20292;-86
2022/01/09 10:47:15;;;;;;;12.40;1.50;;;5.20;99.90;;;;;;6123126;23;20017;-86
2022/01/09 10:49:44;;;;;;;9.85;1.15;;;5.20;99.90;;;;;;6149125;23;20453;-85
2022/01/09 10:52:20;;;;;;;11.48;1.70;;;5.20;99.90;;;;;;6125379;23;20044;-85
2022/01/09 10:54:48;;;;;;;16.95;1.98;;;5.20;99.90;;;;;;6126671;23;20064;-86
2022/01/09 10:57:15;;;;;;;17.23;2.05;;;5.20;99.90;;;;;;6140311;23;20017;-85
2022/01/09 10:59:48;;;;;;;14.18;1.77;;;5.30;99.90;;;;;;6149122;23;20020;-86
2022/01/09 11:03:25;;;;;;;20.15;2.05;;;5.30;99.90;;;;;;6170615;23;20013;-85
2022/01/09 11:06:10;;;;;;;10.02;1.80;;;5.30;99.90;;;;;;6099944;23;20017;-87
2022/01/09 11:09:29;;;;;;;7.60;1.38;;;5.30;99.90;;;;;;6143635;23;20025;-85
2022/01/09 11:12:21;;;;;;;10.25;1.42;;;5.30;99.90;;;;;;6066470;23;20017;-89
2022/01/09 11:15:09;;;;;;;14.32;2.00;;;5.40;99.90;;;;;;6030327;23;20018;-86
2022/01/09 11:17:45;;;;;;;13.23;1.58;;;5.30;99.90;;;;;;6000752;23;20017;-85
2022/01/09 11:20:21;;;;;;;18.80;2.15;;;5.30;99.90;;;;;;6121719;23;20013;-86
2022/01/09 11:23:02;;;;;;;12.63;1.95;;;5.40;99.90;;;;;;6145053;23;20093;-87
2022/01/09 11:25:59;;;;;;;13.63;1.85;;;5.40;99.90;;;;;;6144068;23;20032;-86
2022/01/09 11:29:07;;;;;;;12.57;1.80;;;5.40;99.90;;;;;;6139340;23;20028;-85
2022/01/09 11:31:51;;;;;;;11.95;1.90;;;5.50;99.90;;;;;;6029614;23;20029;-85
2022/01/09 11:35:00;;;;;;;10.45;1.50;;;5.60;99.90;;;;;;6055508;23;20347;-85
2022/01/09 11:37:50;;;;;;;18.38;1.95;;;5.60;99.90;;;;;;6108665;23;20183;-85
2022/01/09 11:40:27;;;;;;;10.65;1.65;;;5.80;99.90;;;;;;6142102;23;20017;-84
2022/01/09 11:43:16;;;;;;;14.45;1.92;;;5.90;99.90;;;;;;6141543;23;20017;-84
2022/01/09 11:45:51;;;;;;;15.00;2.28;;;6.10;99.90;;;;;;6149642;23;20021;-85
2022/01/09 11:48:55;;;;;;;13.27;2.05;;;6.10;99.90;;;;;;6141660;23;20358;-84
2022/01/09 11:51:43;;;;;;;12.40;2.35;;;6.20;99.90;;;;;;6144458;23;20390;-86
2022/01/09 11:54:22;;;;;;;21.40;2.10;;;6.20;99.90;;;;;;6166603;23;20340;-86
2022/01/09 11:57:10;;;;;;;11.77;1.60;;;6.30;99.90;;;;;;6122443;23;20013;-85
2022/01/09 11:59:55;;;;;;;19.25;2.10;;;6.30;99.90;;;;;;6145583;23;20028;-85
2022/01/09 12:02:27;;;;;;;16.10;2.08;;;6.40;99.90;;;;;;6144097;23;20401;-85
2022/01/09 12:05:11;;;;;;;13.88;1.88;;;6.40;99.90;;;;;;6146130;23;20091;-85
2022/01/09 12:07:43;;;;;;;15.15;1.90;;;6.50;99.90;;;;;;6175236;23;20013;-86
2022/01/09 12:10:37;;;;;;;14.80;1.80;;;6.40;99.90;;;;;;6146900;23;20017;-84
2022/01/09 12:13:35;;;;;;;20.10;2.58;;;6.30;99.90;;;;;;6168758;23;20009;-85
2022/01/09 12:16:50;;;;;;;11.82;1.60;;;6.30;99.90;;;;;;6167720;23;20485;-86
2022/01/09 12:19:53;;;;;;;22.38;2.88;;;6.30;99.90;;;;;;6141856;23;20509;-85
2022/01/09 12:23:06;;;;;;;15.02;2.08;;;6.30;99.90;;;;;;6144235;23;20013;-84
2022/01/09 12:29:49;;;;;;;16.63;2.30;;;6.30;99.90;;;;;;6135143;23;20384;-85
2022/01/09 12:32:38;;;;;;;15.75;2.50;;;6.40;99.90;;;;;;6110842;23;20021;-85
2022/01/09 12:35:47;;;;;;;;;;;;;;;;;;;;;
2022/01/09 12:38:56;;;;;;;18.95;1.98;;;6.60;99.90;;;;;;6135573;23;20017;-83
2022/01/09 12:45:28;;;;;;;18.75;2.97;;;7.10;99.90;;;;;;6003328;23;20100;-84
2022/01/09 12:48:27;;;;;;;14.40;2.30;;;7.50;99.90;;;;;;6082794;23;20021;-84
2022/01/09 12:51:20;;;;;;;12.75;1.70;;;7.70;99.90;;;;;;6114871;23;20502;-84
2022/01/09 12:54:04;;;;;;;15.48;2.53;;;7.60;99.90;;;;;;6078076;23;20048;-85
2022/01/09 12:56:41;;;;;;;13.88;2.17;;;7.40;99.90;;;;;;6126613;23;20346;-85
2022/01/09 12:59:09;;;;;;;15.05;1.73;;;7.30;99.90;;;;;;6144181;23;20382;-85
2022/01/09 13:01:44;;;;;;;13.18;2.17;;;7.10;99.90;;;;;;6168548;23;20017;-85
2022/01/09 13:04:19;;;;;;;18.00;2.30;;;7.00;99.90;;;;;;6142402;23;20013;-85
2022/01/09 13:06:50;;;;;;;17.33;2.03;;;6.90;99.90;;;;;;6169333;23;20016;-85
2022/01/09 13:09:24;;;;;;;14.98;2.05;;;6.90;99.90;;;;;;6146120;23;20087;-84
2022/01/09 13:12:07;;;;;;;15.77;2.33;;;7.10;99.90;;;;;;6147331;23;20048;-83
2022/01/09 13:14:45;;;;;;;17.40;2.50;;;7.50;99.90;;;;;;6146895;23;20668;-84
2022/01/09 13:17:16;;;;;;;10.35;1.80;;;7.60;99.90;;;;;;6141168;23;20020;-85
2022/01/09 13:20:16;;;;;;;13.10;2.15;;;7.60;99.90;;;;;;6147106;23;20079;-86
2022/01/09 13:22:42;;;;;;;12.95;2.67;;;7.70;99.90;;;;;;6172076;23;20028;-85
2022/01/09 13:25:12;;;;;;;16.33;2.38;;;7.70;99.90;;;;;;6146213;23;20020;-85
2022/01/09 13:27:38;;;;;;;12.88;2.67;;;7.70;99.90;;;;;;6118525;23;20013;-84
2022/01/09 13:30:05;;;;;;;16.35;2.80;;;7.60;99.90;;;;;;6145877;23;20423;-83
2022/01/09 13:32:34;;;;;;;16.85;3.35;;;7.50;99.90;;;;;;6097867;23;20013;-85
2022/01/09 13:35:07;;;;;;;25.55;2.97;;;7.40;99.90;;;;;;6171673;23;20450;-85
2022/01/09 13:37:38;;;;;;;20.05;2.33;;;7.30;99.90;;;;;;6146874;23;20036;-85
2022/01/09 13:40:05;;;;;;;17.20;2.47;;;7.20;99.90;;;;;;6102901;23;20092;-85
2022/01/09 13:42:32;;;;;;;18.27;4.72;;;7.10;99.90;;;;;;6121787;23;20017;-84
2022/01/09 13:45:15;;;;;;;17.48;4.63;;;7.10;99.90;;;;;;6146562;23;20013;-87
2022/01/09 13:47:49;;;;;;;9.63;2.83;;;7.00;99.90;;;;;;6120730;23;20012;-84
2022/01/09 13:50:20;;;;;;;20.73;5.72;;;6.90;99.90;;;;;;6146813;23;20020;-84
2022/01/09 13:52:46;;;;;;;11.70;2.80;;;6.80;99.90;;;;;;6147852;23;20017;-84
2022/01/09 13:55:15;;;;;;;12.65;1.95;;;6.90;99.90;;;;;;6170875;23;20029;-84
2022/01/09 13:57:55;;;;;;;15.73;3.75;;;7.00;99.90;;;;;;6144725;23;20019;-85
2022/01/09 14:00:24;;;;;;;14.35;4.20;;;7.00;99.90;;;;;;6120662;23;20016;-84
2022/01/09 14:02:52;;;;;;;20.40;4.60;;;7.10;99.90;;;;;;6147730;23;20028;-85
2022/01/09 14:05:20;;;;;;;9.18;2.25;;;7.00;99.90;;;;;;6148766;23;20036;-85
2022/01/09 14:07:54;;;;;;;12.20;2.15;;;6.90;99.90;;;;;;6149603;23;20016;-85
2022/01/09 14:10:30;;;;;;;13.77;1.88;;;6.80;99.90;;;;;;6123791;23;20013;-85
2022/01/09 14:12:56;;;;;;;9.48;1.98;;;6.70;99.90;;;;;;6145615;23;20031;-84
2022/01/09 14:15:22;;;;;;;14.75;1.52;;;6.70;99.90;;;;;;6118914;23;20017;-83
2022/01/09 14:17:50;;;;;;;7.20;1.20;;;6.60;99.90;;;;;;6146105;23;20075;-85
2022/01/09 14:20:22;;;;;;;12.75;1.48;;;6.60;99.90;;;;;;6147126;23;20056;-84
2022/01/09 14:22:54;;;;;;;13.85;1.73;;;6.60;99.90;;;;;;6147440;23;20508;-84
2022/01/09 14:25:30;;;;;;;14.48;1.85;;;6.60;99.90;;;;;;6121743;23;20083;-84
2022/01/09 14:27:59;;;;;;;4.88;1.00;;;6.60;99.90;;;;;;6143379;23;20558;-84
2022/01/09 14:31:21;;;;;;;5.95;1.00;;;6.60;99.90;;;;;;6123059;23;20028;-84
2022/01/09 14:33:58;;;;;;;10.73;1.63;;;6.60;99.90;;;;;;6170959;23;20024;-84
2022/01/09 14:36:33;;;;;;;7.97;1.17;;;6.60;99.90;;;;;;6147961;23;20461;-83
2022/01/09 14:39:02;;;;;;;6.65;1.63;;;6.60;99.90;;;;;;6149516;23;20013;-84
2022/01/09 14:41:39;;;;;;;26.42;2.75;;;6.50;99.90;;;;;;6169901;23;20331;-84
2022/01/09 14:44:06;;;;;;;16.77;2.55;;;6.50;99.90;;;;;;6118614;23;20112;-83
2022/01/09 14:46:34;;;;;;;17.23;2.83;;;6.50;99.90;;;;;;6142857;23;20378;-84